Flight Track Log - Related Links

Times and Time Zones

All times are in EDT time to prevent confusion due to time zone crossing. See the TSC230 flight status page for this flight to view local times or setup timezone preferences in your user account.

Time Position Orientation Groundspeed Altitude Reporting Facility
EDT Latitude Longitude Course Direction KTS MPH feet Rate Location/Type
Mon 09:34:22 PM 43.7000 -79.5167 44° Northeast 170 196 2,400  Level Toronto Center
Mon 09:35:22 PM 43.7500 -79.4500 343° North 240 276 3,900 1,500 Climbing Toronto Center
Mon 09:35:34 PM 43.7670 -79.4570 80° East 278 320 4,200 2,000 Climbing FlightAware ADS-B
Mon 09:35:49 PM 43.7700 -79.4330 90° East 282 325 4,800 2,800 Climbing FlightAware ADS-B
Mon 09:36:04 PM 43.7700 -79.4010 95° East 286 329 5,600 3,091 Climbing FlightAware ADS-B
Mon 09:36:22 PM 43.7667 -79.3500 49° Northeast 280 322 6,500 750 Climbing Toronto Center
Mon 09:36:44 PM 43.7710 -79.3430 90° East 284 327 6,100 346 Descending FlightAware ADS-B
Mon 09:37:14 PM 43.7710 -79.2790 97° East 289 333 6,800 1,421 Climbing FlightAware ADS-B
Mon 09:37:22 PM 43.7667 -79.2333 76° East 290 334 7,000  Climbing Toronto Center
Mon 09:37:59 PM 43.7720 -79.2040 95° East 287 330 6,800 800 Descending FlightAware ADS-B
Mon 09:38:22 PM 43.7667 -79.1167 71° East 290 334 7,800 1,309 Climbing Toronto Center
Mon 09:38:54 PM 43.7720 -79.0950 90° East 287 330 8,000 2,308 Climbing FlightAware ADS-B
Mon 09:39:14 PM 43.7720 -79.0570 100° East 296 341 9,800 5,143 Climbing FlightAware ADS-B
Mon 09:39:22 PM 43.7667 -79.0167 68° East 290 334 10,400 1,324 Climbing Toronto Center
Mon 09:40:22 PM 43.8000 -78.9000 73° East 310 357 11,300 1,550 Climbing Toronto Center
Mon 09:41:22 PM 43.8333 -78.7500 68° East 360 414 13,500 2,150 Climbing Toronto Center
Mon 09:42:22 PM 43.8667 -78.6333 71° East 370 426 15,600 2,050 Climbing Toronto Center
Mon 09:43:22 PM 43.9000 -78.5000 71° East 380 437 17,600 1,800 Climbing Toronto Center
Mon 09:44:22 PM 43.9333 -78.3667 65° Northeast 390 449 19,200 1,650 Climbing Toronto Center
Mon 09:45:22 PM 43.9833 -78.2167 74° East 400 460 20,900 1,650 Climbing Toronto Center
Mon 09:46:22 PM 44.0167 -78.0500 62° Northeast 410 472 22,500 1,500 Climbing Toronto Center
Mon 09:47:22 PM 44.0667 -77.9167 48° Northeast 420 483 23,900 1,382 Climbing Toronto Center
Mon 09:48:54 PM 44.1840 -77.7370 55° Northeast 430 495 26,000 1,318 Climbing FlightAware ADS-B
Mon 09:49:34 PM 44.2300 -77.6450 55° Northeast 429 494 26,800 1,200 Climbing FlightAware ADS-B
Mon 09:50:19 PM 44.2810 -77.5420 56° Northeast 432 497 27,700 1,129 Climbing FlightAware ADS-B
Mon 09:50:59 PM 44.3270 -77.4480 55° Northeast 436 502 28,400 988 Climbing FlightAware ADS-B
Mon 09:51:44 PM 44.3800 -77.3420 56° Northeast 440 506 29,100 918 Climbing FlightAware ADS-B
Mon 09:52:24 PM 44.4250 -77.2490 55° Northeast 444 511 29,700 1,129 Climbing FlightAware ADS-B
Mon 09:53:09 PM 44.4790 -77.1400 56° Northeast 438 504 30,700 1,412 Climbing FlightAware ADS-B
Mon 09:53:49 PM 44.5240 -77.0470 55° Northeast 434 499 31,700 1,350 Climbing FlightAware ADS-B
Mon 09:54:29 PM 44.5700 -76.9540 56° Northeast 431 496 32,500 1,059 Climbing FlightAware ADS-B
Mon 09:55:14 PM 44.6190 -76.8530 56° Northeast 431 496 33,200 1,050 Climbing FlightAware ADS-B
Mon 09:55:49 PM 44.6600 -76.7670 56° Northeast 430 495 33,900 988 Climbing FlightAware ADS-B
Mon 09:56:39 PM 44.7130 -76.6580 56° Northeast 430 495 34,600 1,067 Climbing FlightAware ADS-B
Mon 09:57:19 PM 44.7600 -76.5600 56° Northeast 427 491 35,500 1,125 Climbing FlightAware ADS-B
Mon 09:57:59 PM 44.8040 -76.4680 56° Northeast 428 493 36,100 635 Climbing FlightAware ADS-B
Mon 09:58:44 PM 44.8550 -76.3630 56° Northeast 436 502 36,400 353 Climbing FlightAware ADS-B
Mon 09:59:24 PM 44.8960 -76.2760 65° Northeast 436 502 36,600 494 Climbing FlightAware ADS-B
Mon 10:00:09 PM 44.9390 -76.1480 71° East 458 527 37,100 565 Climbing FlightAware ADS-B
Mon 10:00:49 PM 44.9670 -76.0340 71° East 462 532 37,400 480 Climbing FlightAware ADS-B
Mon 10:01:24 PM 44.9900 -75.9380 71° East 464 534 37,700 494 Climbing FlightAware ADS-B
Mon 10:02:14 PM 45.0280 -75.7800 71° East 474 545 38,100 467 Climbing FlightAware ADS-B
Mon 10:02:54 PM 45.0550 -75.6700 72° East 475 547 38,400 635 Climbing FlightAware ADS-B
Mon 10:03:39 PM 45.0870 -75.5340 71° East 472 543 39,000 424 Climbing FlightAware ADS-B
Mon 10:04:19 PM 45.1150 -75.4180 71° East 474 545 39,000  Level FlightAware ADS-B
Mon 10:05:04 PM 45.1470 -75.2840 72° East 474 545 39,000  Level FlightAware ADS-B
Mon 10:05:39 PM 45.1700 -75.1850 72° East 475 547 39,000  Level FlightAware ADS-B
Mon 10:06:29 PM 45.2040 -75.0370 68° East 477 549 39,000  Level FlightAware ADS-B
Mon 10:07:04 PM 45.2320 -74.9370 61° Northeast 475 547 39,000  Level FlightAware ADS-B
Mon 10:07:54 PM 45.2780 -74.8170 54° Northeast 471 542 39,000  Level FlightAware ADS-B
Mon 10:08:29 PM 45.3240 -74.7280 47° Northeast 468 539 39,000  Level FlightAware ADS-B
Mon 10:09:14 PM 45.3850 -74.6340 45° Northeast 464 534 39,000  Level FlightAware ADS-B
Mon 10:09:59 PM 45.4590 -74.5270 47° Northeast 465 535 39,000  Level FlightAware ADS-B
Mon 10:10:39 PM 45.5110 -74.4480 47° Northeast 466 536 39,000  Level FlightAware ADS-B
Mon 10:11:24 PM 45.5810 -74.3410 47° Northeast 466 536 39,000  Level FlightAware ADS-B
Mon 10:12:04 PM 45.6410 -74.2500 46° Northeast 466 536 39,000  Level FlightAware ADS-B
Mon 10:12:44 PM 45.6940 -74.1710 47° Northeast 465 535 39,000  Level FlightAware ADS-B
Mon 10:13:29 PM 45.7710 -74.0520 47° Northeast 464 534 39,000  Level FlightAware ADS-B
Mon 10:14:09 PM 45.8290 -73.9620 47° Northeast 466 536 39,000  Level FlightAware ADS-B
Mon 10:14:54 PM 45.8960 -73.8590 47° Northeast 467 537 39,000  Level FlightAware ADS-B
Mon 10:15:34 PM 45.9540 -73.7690 47° Northeast 467 537 39,000  Level FlightAware ADS-B
Mon 10:16:14 PM 46.0130 -73.6780 48° Northeast 469 540 39,000  Level FlightAware ADS-B
Mon 10:16:59 PM 46.0780 -73.5750 47° Northeast 467 537 39,000  Level FlightAware ADS-B
Mon 10:17:39 PM 46.1360 -73.4850 47° Northeast 467 537 39,000  Level FlightAware ADS-B
Mon 10:18:19 PM 46.1940 -73.3940 53° Northeast 466 536 39,000  Level FlightAware ADS-B
Mon 10:19:04 PM 46.2520 -73.2830 53° Northeast 471 542 39,000  Level FlightAware ADS-B
Mon 10:19:44 PM 46.3010 -73.1890 54° Northeast 473 544 39,000  Level FlightAware ADS-B
Mon 10:20:24 PM 46.3570 -73.0790 54° Northeast 473 544 39,000  Level FlightAware ADS-B
Mon 10:21:09 PM 46.4160 -72.9630 54° Northeast 473 544 39,000  Level FlightAware ADS-B
Mon 10:21:49 PM 46.4680 -72.8600 54° Northeast 473 544 39,000  Level FlightAware ADS-B
Mon 10:22:34 PM 46.5250 -72.7460 54° Northeast 474 545 39,000  Level FlightAware ADS-B
Mon 10:23:14 PM 46.5760 -72.6430 54° Northeast 474 545 39,000  Level FlightAware ADS-B
Mon 10:23:59 PM 46.6350 -72.5260 49° Northeast 470 541 39,000  Level FlightAware ADS-B
Mon 10:24:39 PM 46.6910 -72.4310 48° Northeast 466 536 39,000  Level FlightAware ADS-B
Mon 10:25:19 PM 46.7430 -72.3460 48° Northeast 467 537 39,000  Level FlightAware ADS-B
Mon 10:25:59 PM 46.7990 -72.2560 47° Northeast 467 537 39,000  Level FlightAware ADS-B
Mon 10:26:44 PM 46.8570 -72.1650 48° Northeast 467 537 39,000  Level FlightAware ADS-B
Mon 10:27:29 PM 46.9280 -72.0500 48° Northeast 467 537 39,000  Level FlightAware ADS-B
Mon 10:27:59 PM 46.9670 -71.9870 48° Northeast 468 539 39,000  Level FlightAware ADS-B
Mon 10:28:59 PM 47.0610 -71.8350 48° Northeast 470 541 39,000  Level FlightAware ADS-B
Mon 10:29:39 PM 47.1190 -71.7400 48° Northeast 470 541 39,000  Level FlightAware ADS-B
Mon 10:30:24 PM 47.1810 -71.6390 48° Northeast 473 544 39,000  Level FlightAware ADS-B
Mon 10:31:04 PM 47.2340 -71.5520 48° Northeast 473 544 39,000  Level FlightAware ADS-B
Mon 10:32:04 PM 47.3250 -71.4030 48° Northeast 474 545 39,000  Level FlightAware ADS-B
Mon 10:32:49 PM 47.3750 -71.3210 49° Northeast 474 545 39,000  Level FlightAware ADS-B
Mon 10:33:29 PM 47.4240 -71.2390 48° Northeast 474 545 39,000  Level FlightAware ADS-B
Mon 10:34:14 PM 47.4870 -71.1370 48° Northeast 474 545 39,000  Level FlightAware ADS-B
Mon 10:34:59 PM 47.5370 -71.0550 48° Northeast 474 545 39,000  Level FlightAware ADS-B
Mon 10:35:34 PM 47.5870 -70.9730 48° Northeast 474 545 39,000  Level FlightAware ADS-B
Mon 10:36:19 PM 47.6360 -70.8910 53° Northeast 474 545 39,000  Level FlightAware ADS-B
Mon 10:37:27 PM 47.8000 -70.5667 47° Northeast 480 552 39,000  Level Montreal Center
Mon 10:38:27 PM 47.8833 -70.4333 48° Northeast 480 552 39,000  Level Montreal Center
Mon 10:39:27 PM 47.9833 -70.2667 53° Northeast 480 552 39,000  Level Montreal Center
Mon 10:40:27 PM 48.0667 -70.1000 45° Northeast 480 552 39,000  Level Montreal Center
Mon 10:41:27 PM 48.1667 -69.9500 56° Northeast 480 552 39,000  Level Montreal Center
Mon 10:42:27 PM 48.2333 -69.8000 45° Northeast 480 552 39,000  Level Montreal Center
Mon 10:43:27 PM 48.3333 -69.6500 53° Northeast 480 552 39,000  Level Montreal Center
Mon 10:44:27 PM 48.4167 -69.4833 47° Northeast 480 552 39,000  Level Montreal Center
Mon 10:45:27 PM 48.5000 -69.3500 53° Northeast 480 552 39,000  Level Montreal Center
Mon 10:46:27 PM 48.5833 -69.1833 48° Northeast 480 552 39,000  Level Montreal Center
Mon 10:47:27 PM 48.6833 -69.0167 50° Northeast 490 564 39,000  Level Montreal Center
Mon 10:48:27 PM 48.7667 -68.8667 48° Northeast 490 564 39,000  Level Montreal Center
Mon 10:49:27 PM 48.8667 -68.7000 59° Northeast 500 575 39,000  Level Montreal Center
Mon 10:50:27 PM 48.9333 -68.5333 43° Northeast 500 575 39,000  Level Montreal Center
Mon 10:51:27 PM 49.0500 -68.3667 59° Northeast 500 575 39,000  Level Montreal Center
Mon 10:52:27 PM 49.1167 -68.2000 47° Northeast 510 587 39,000  Level Montreal Center
Mon 10:53:27 PM 49.2167 -68.0333 50° Northeast 510 587 39,000  Level Montreal Center
Mon 10:54:27 PM 49.3167 -67.8500 52° Northeast 510 587 39,000  Level Montreal Center
Mon 10:55:27 PM 49.4000 -67.6833 52° Northeast 510 587 39,000  Level Montreal Center
Mon 10:56:27 PM 49.4833 -67.5167 47° Northeast 510 587 39,000  Level Montreal Center
Mon 10:57:27 PM 49.5833 -67.3500 55° Northeast 510 587 39,000  Level Montreal Center
Mon 10:58:27 PM 49.6667 -67.1667 52° Northeast 510 587 39,000  Level Montreal Center
Mon 10:59:27 PM 49.7500 -67.0000 55° Northeast 510 587 39,000  Level Montreal Center
Mon 11:00:27 PM 49.8333 -66.8167 47° Northeast 510 587 39,000  Level Montreal Center
Mon 11:01:27 PM 49.9333 -66.6500 55° Northeast 510 587 39,000  Level Montreal Center
Mon 11:02:27 PM 50.0167 -66.4667 47° Northeast 520 598 39,000  Level Montreal Center
Mon 11:03:27 PM 50.1167 -66.3000 55° Northeast 520 598 39,000  Level Montreal Center
Mon 11:04:27 PM 50.2000 -66.1167 57° Northeast 520 598 39,000  Level Montreal Center
Mon 11:05:27 PM 50.2833 -65.9167 54° Northeast 520 598 39,000  Level Montreal Center
Mon 11:06:27 PM 50.3667 -65.7333 49° Northeast 520 598 39,000  Level Montreal Center
Mon 11:07:27 PM 50.4667 -65.5500 54° Northeast 530 610 39,000  Level Montreal Center
Mon 11:08:27 PM 50.5500 -65.3667 47° Northeast 530 610 39,000  Level Montreal Center
Mon 11:09:27 PM 50.6500 -65.2000 52° Northeast 530 610 39,000  Level Montreal Center
Mon 11:10:27 PM 50.7500 -65.0000 52° Northeast 530 610 39,000  Level Montreal Center
Mon 11:11:27 PM 50.8333 -64.8333 59° Northeast 530 610 39,000  Level Montreal Center
Mon 11:12:27 PM 50.9167 -64.6167 49° Northeast 530 610 39,000  Level Montreal Center
Mon 11:13:27 PM 51.0167 -64.4333 54° Northeast 530 610 39,000  Level Montreal Center
Mon 11:14:27 PM 51.1000 -64.2500 58° Northeast 540 621 39,000  Level Montreal Center
Mon 11:15:27 PM 51.1833 -64.0333 54° Northeast 540 621 39,000  Level Montreal Center
Mon 11:16:27 PM 51.2667 -63.8500 53° Northeast 550 633 39,000  Level Montreal Center
Mon 11:17:27 PM 51.3667 -63.6333 54° Northeast 550 633 39,000  Level Montreal Center
Mon 11:18:27 PM 51.4500 -63.4500 53° Northeast 550 633 39,000  Level Montreal Center
Mon 11:19:27 PM 51.5500 -63.2333 62° Northeast 560 644 39,000  Level Montreal Center
Mon 11:20:27 PM 51.6167 -63.0333 53° Northeast 560 644 39,000  Level Montreal Center
Mon 11:21:27 PM 51.7167 -62.8167 51° Northeast 570 656 39,000  Level Montreal Center
Mon 11:22:27 PM 51.8167 -62.6167 53° Northeast 570 656 39,000  Level Montreal Center
Mon 11:23:27 PM 51.9167 -62.4000 58° Northeast 570 656 39,000  Level Montreal Center
Mon 11:24:27 PM 52.0000 -62.1833 56° Northeast 570 656 39,000  Level Montreal Center
Mon 11:25:27 PM 52.0833 -61.9833 58° Northeast 570 656 39,000  Level Montreal Center
Mon 11:26:27 PM 52.1667 -61.7667 51° Northeast 570 656 39,000  Level Montreal Center
Mon 11:27:27 PM 52.2667 -61.5667 55° Northeast 570 656 39,000  Level Montreal Center
Mon 11:28:27 PM 52.3667 -61.3333 63° Northeast 570 656 39,000  Level Montreal Center
Mon 11:29:27 PM 52.4333 -61.1167 48° Northeast 570 656 39,000  Level Montreal Center
Mon 11:30:27 PM 52.5500 -60.9000 58° Northeast 570 656 39,000  Level Montreal Center
Mon 11:31:27 PM 52.6333 -60.6833 50° Northeast 580 667 39,000  Level Montreal Center
Mon 11:32:27 PM 52.7333 -60.4833 57° Northeast 580 667 39,000  Level Montreal Center
Mon 11:33:27 PM 52.8167 -60.2667 59° Northeast 580 667 39,000  Level Montreal Center
Mon 11:34:27 PM 52.9000 -60.0333 46° Northeast 580 667 39,000  Level Montreal Center
Mon 11:35:27 PM 53.0167 -59.8333 59° Northeast 580 667 39,000  Level Montreal Center
Mon 11:36:27 PM 53.1000 -59.6000 52° Northeast 580 667 39,000  Level Montreal Center
Mon 11:37:27 PM 53.2000 -59.3833 59° Northeast 580 667 39,000  Level Montreal Center
Mon 11:38:27 PM 53.2833 -59.1500 52° Northeast 580 667 39,000 100 Level Montreal Center
Mon 11:39:27 PM 53.3833 -58.9333 42° Northeast 590 679 39,200 245 Climbing Montreal Center
Mon 11:40:05 PM 53.4500 -58.8333 58° Northeast 590 679 39,400 333 Climbing Moncton Center
Mon 11:40:39 PM 53.5000 -58.7000 54° Northeast 590 679 39,600 319 Climbing Gander Center
Mon 11:41:39 PM 53.6000 -58.4667 54° Northeast 600 690 39,900 200 Climbing Gander Center
Mon 11:42:39 PM 53.7000 -58.2333 64° Northeast 600 690 40,000 50 Climbing Gander Center
Mon 11:43:39 PM 53.7667 -58.0000 50° Northeast 600 690 40,000  Level Gander Center
Mon 11:44:39 PM 53.8833 -57.7667 60° Northeast 600 690 40,000  Level Gander Center
Mon 11:45:05 PM 53.9167 -57.6667 67° East 600 690 40,000  Level Moncton Center
Mon 11:45:39 PM 53.9500 -57.5333 50° Northeast 600 690 40,000  Level Gander Center
Mon 11:46:39 PM 54.0667 -57.3000 60° Northeast 600 690 40,000  Level Gander Center
Mon 11:47:39 PM 54.1500 -57.0500 57° Northeast 600 690 40,000  Level Gander Center
Mon 11:48:39 PM 54.2500 -56.7833 60° Northeast 610 702 40,000  Level Gander Center
Mon 11:49:05 PM 54.2833 -56.6833 41° Northeast 610 702 40,000  Level Moncton Center
Mon 11:49:39 PM 54.3500 -56.5833 65° Northeast 600 690 40,000  Level Gander Center
Mon 11:50:39 PM 54.4167 -56.3333 57° Northeast 600 690 40,000  Level Gander Center
Mon 11:51:39 PM 54.5167 -56.0667 58° Northeast 600 690 40,000  Level Gander Center
Mon 11:52:39 PM 54.6000 -55.8333 311° West 600 690 40,000  Level Gander Center
Mon 11:53:00 PM 54.6167 -55.8667 75° East 591 680 40,000  Level ETMS Enhanced Traffic Management System
Mon 11:53:39 PM 54.6667 -55.5500 64° Northeast 600 690 40,000  Level Gander Center
Mon 11:54:39 PM 54.7333 -55.3167 66° East 600 690 40,000  Level Gander Center
Mon 11:55:39 PM 54.8000 -55.0500 72° East 580 667 40,000  Level Gander Center
Mon 11:56:39 PM 54.8500 -54.7833 65° Northeast 590 679 40,000  Level Gander Center
Mon 11:57:39 PM 54.9167 -54.5333 68° East 600 690 40,000  Level Gander Center
Mon 11:58:39 PM 54.9833 -54.2500 72° East 600 690 40,000  Level Gander Center
Mon 11:59:39 PM 55.0333 -53.9833 66° East 600 690 40,000  Level Gander Center
Tue 12:00:39 AM 55.1000 -53.7167 65° Northeast 600 690 40,000  Level Gander Center
Tue 12:01:39 AM 55.1667 -53.4667 67° East 600 690 40,000  Level Gander Center
Tue 12:02:39 AM 55.2333 -53.1833 67° East 600 690 40,000  Level Gander Center
Tue 12:03:39 AM 55.3000 -52.9000 66° East 600 690 40,000  Level Gander Center
Tue 12:04:39 AM 55.3667 -52.6333 66° East 600 690 40,000  Level Gander Center
Tue 12:05:39 AM 55.4333 -52.3667 72° East 600 690 40,000  Level Gander Center
Tue 12:06:39 AM 55.4833 -52.1000 62° Northeast 600 690 40,000  Level Gander Center
Tue 12:07:39 AM 55.5667 -51.8167 73° East 600 690 40,000  Level Gander Center
Tue 12:08:39 AM 55.6167 -51.5333 78° East 610 702 40,000  Level Gander Center
Tue 12:09:39 AM 55.6500 -51.2500 67° East 610 702 40,000  Level Gander Center
Tue 12:10:39 AM 55.7167 -50.9667 59° Northeast 600 690 40,000  Level Gander Center
Tue 12:11:39 AM 55.8000 -50.7167 63° Northeast 600 690 40,000  Level Gander Center
Tue 12:15:00 AM 56.0000 -50.0000 66° East 596 686 40,000  Level ETMS Enhanced Traffic Management System
Tue 12:52:00 AM 58.0000 -40.0000 86° East 544 626 40,000  Level ETMS Enhanced Traffic Management System
Tue 01:29:00 AM 57.5193 -29.8145 348° North  Level FlightAware Approximate
Tue 01:29:00 AM 58.0000 -30.0000 106° East 563 648 40,000  Level ETMS Enhanced Traffic Management System
Tue 01:30:00 AM 57.4996 -29.5541 89° East  Level FlightAware Approximate
Tue 01:31:00 AM 57.4793 -29.2941 89° East  Level FlightAware Approximate
Tue 01:32:00 AM 57.4585 -29.0343 88° East  Level FlightAware Approximate
Tue 01:33:00 AM 57.4372 -28.7748 86° East  Level FlightAware Approximate
Tue 01:37:00 AM 57.4897 -26.9162 102° East 563 648 40,000  Level FlightAware Transoceanic
Tue 01:38:00 AM 57.4609 -26.6590 102° East  Level FlightAware Approximate
Tue 01:39:00 AM 57.4316 -26.4022 103° East  Level FlightAware Approximate
Tue 01:40:00 AM 57.4017 -26.1459 103° East  Level FlightAware Approximate
Tue 01:41:00 AM 57.3714 -25.8900 103° East  Level FlightAware Approximate
Tue 01:42:00 AM 57.3405 -25.6345 103° East  Level FlightAware Approximate
Tue 01:43:00 AM 57.3091 -25.3794 103° East  Level FlightAware Approximate
Tue 01:44:00 AM 57.2772 -25.1248 104° East  Level FlightAware Approximate
Tue 01:45:00 AM 57.2448 -24.8706 104° East  Level FlightAware Approximate
Tue 01:46:00 AM 57.2118 -24.6169 104° East  Level FlightAware Approximate
Tue 01:47:00 AM 57.1784 -24.3636 104° East  Level FlightAware Approximate
Tue 01:48:00 AM 57.1444 -24.1108 105° East  Level FlightAware Approximate
Tue 01:49:00 AM 57.1100 -23.8585 105° East  Level FlightAware Approximate
Tue 01:50:00 AM 57.0750 -23.6066 105° East  Level FlightAware Approximate
Tue 01:51:00 AM 57.0395 -23.3552 105° East  Level FlightAware Approximate
Tue 01:52:00 AM 57.0035 -23.1043 105° East  Level FlightAware Approximate
Tue 01:53:00 AM 56.9671 -22.8539 106° East  Level FlightAware Approximate
Tue 01:54:00 AM 56.9301 -22.6040 106° East  Level FlightAware Approximate
Tue 01:55:00 AM 56.8926 -22.3545 106° East  Level FlightAware Approximate
Tue 01:56:00 AM 56.8546 -22.1056 106° East  Level FlightAware Approximate
Tue 01:57:00 AM 56.8162 -21.8572 106° East  Level FlightAware Approximate
Tue 01:58:00 AM 56.7772 -21.6093 107° East  Level FlightAware Approximate
Tue 01:59:00 AM 56.7378 -21.3619 107° East  Level FlightAware Approximate
Tue 02:00:00 AM 56.6978 -21.1150 107° East  Level FlightAware Approximate
Tue 02:01:00 AM 56.6574 -20.8687 107° East  Level FlightAware Approximate
Tue 02:02:00 AM 56.6165 -20.6229 108° East  Level FlightAware Approximate
Tue 02:03:00 AM 56.5751 -20.3776 108° East  Level FlightAware Approximate
Tue 02:04:00 AM 56.5332 -20.1329 108° East  Level FlightAware Approximate
Tue 02:05:00 AM 56.4950 -19.8864 108° East  Level FlightAware Approximate
Tue 02:06:00 AM 56.4563 -19.6405 109° East  Level FlightAware Approximate
Tue 02:07:00 AM 56.4170 -19.3951 109° East  Level FlightAware Approximate
Tue 02:08:00 AM 56.3773 -19.1502 109° East  Level FlightAware Approximate
Tue 02:09:00 AM 56.3371 -18.9058 109° East  Level FlightAware Approximate
Tue 02:10:00 AM 56.2965 -18.6619 110° East  Level FlightAware Approximate
Tue 02:11:00 AM 56.2553 -18.4186 110° East  Level FlightAware Approximate
Tue 02:12:00 AM 56.2137 -18.1758 110° East  Level FlightAware Approximate
Tue 02:13:00 AM 56.1716 -17.9335 111° Southeast  Level FlightAware Approximate
Tue 02:14:00 AM 56.1290 -17.6917 111° Southeast  Level FlightAware Approximate
Tue 02:15:00 AM 56.0860 -17.4505 111° Southeast  Level FlightAware Approximate
Tue 02:16:00 AM 56.0425 -17.2098 112° Southeast  Level FlightAware Approximate
Tue 02:17:00 AM 55.9985 -16.9697 112° Southeast  Level FlightAware Approximate
Tue 02:18:00 AM 55.9541 -16.7301 112° Southeast  Level FlightAware Approximate
Tue 02:19:00 AM 55.9091 -16.4910 113° Southeast  Level FlightAware Approximate
Tue 02:20:00 AM 55.8638 -16.2526 113° Southeast  Level FlightAware Approximate
Tue 02:21:00 AM 55.8180 -16.0146 113° Southeast  Level FlightAware Approximate
Tue 02:22:00 AM 55.7717 -15.7773 114° Southeast  Level FlightAware Approximate
Tue 02:23:00 AM 55.7249 -15.5405 114° Southeast  Level FlightAware Approximate
Tue 02:24:00 AM 55.6777 -15.3043 114° Southeast  Level FlightAware Approximate
Tue 02:25:00 AM 55.6301 -15.0686 115° Southeast  Level FlightAware Approximate
Tue 02:26:00 AM 55.5820 -14.8335 115° Southeast  Level FlightAware Approximate
Tue 02:27:00 AM 55.5334 -14.5990 116° Southeast  Level FlightAware Approximate
Tue 02:28:00 AM 55.4844 -14.3651 116° Southeast  Level FlightAware Approximate
Tue 02:29:00 AM 55.4350 -14.1318 117° Southeast  Level FlightAware Approximate
Tue 02:30:00 AM 55.3851 -13.8990 118° Southeast  Level FlightAware Approximate
Tue 02:31:00 AM 55.3348 -13.6669 118° Southeast  Level FlightAware Approximate
Tue 02:32:00 AM 55.2840 -13.4353 119° Southeast  Level FlightAware Approximate
Tue 02:33:00 AM 55.2328 -13.2043 120° Southeast  Level FlightAware Approximate
Tue 02:34:00 AM 55.1812 -12.9740 121° Southeast  Level FlightAware Approximate
Tue 02:35:00 AM 55.1291 -12.7442 122° Southeast  Level FlightAware Approximate
Tue 02:36:00 AM 55.0766 -12.5150 124° Southeast  Level FlightAware Approximate
Tue 02:37:00 AM 55.0237 -12.2864 126° Southeast  Level FlightAware Approximate
Tue 02:38:00 AM 54.9703 -12.0585 128° Southeast  Level FlightAware Approximate
Tue 02:39:00 AM 54.9165 -11.8311 131° Southeast  Level FlightAware Approximate
Tue 02:39:59 AM 54.4270 -10.8870 105° East 508 585 40,000  Level FlightAware ADS-B
Tue 02:40:34 AM 54.4130 -10.7970 106° East 507 583 40,000  Level FlightAware ADS-B
Tue 02:41:24 AM 54.3740 -10.5650 105° East 508 585 40,000  Level FlightAware ADS-B
Tue 02:41:54 AM 54.3550 -10.4470 106° East 508 585 40,000  Level FlightAware ADS-B
Tue 02:42:44 AM 54.3300 -10.2970 107° East 509 586 40,000 -253 Level FlightAware ADS-B
Tue 02:43:29 AM 54.2940 -10.0900 106° East 515 593 39,600 -706 Descending FlightAware ADS-B
Tue 02:44:09 AM 54.2690 -9.9400 106° East 516 594 39,000 -1,200 Descending FlightAware ADS-B
Tue 02:44:49 AM 54.2450 -9.8000 107° East 514 592 38,000 -2,118 Descending FlightAware ADS-B
Tue 02:45:34 AM 54.2070 -9.5820 107° East 513 590 36,000 -2,682 Descending FlightAware ADS-B
Tue 02:46:14 AM 54.1790 -9.4250 107° East 518 596 34,200 -2,612 Descending FlightAware ADS-B
Tue 02:46:59 AM 54.1500 -9.2620 107° East 521 600 32,300 -2,400 Descending FlightAware ADS-B
Tue 02:47:39 AM 54.1210 -9.1000 106° East 514 592 30,800 -1,800 Descending FlightAware ADS-B
Tue 02:48:19 AM 54.1000 -8.9790 107° East 506 582 29,900 -1,624 Descending FlightAware ADS-B
Tue 02:49:04 AM 54.0680 -8.8060 107° East 495 570 28,500 -1,835 Descending FlightAware ADS-B
Tue 02:49:44 AM 54.0390 -8.6490 107° East 483 556 27,300 -1,694 Descending FlightAware ADS-B
Tue 02:50:29 AM 54.0120 -8.5010 108° East 470 541 26,100 -1,694 Descending FlightAware ADS-B
Tue 02:51:09 AM 53.9840 -8.3510 107° East 459 528 24,900 -1,624 Descending FlightAware ADS-B
Tue 02:51:54 AM 53.9590 -8.2160 108° East 449 517 23,800 -1,553 Descending FlightAware ADS-B
Tue 02:52:34 AM 53.9320 -8.0730 108° East 437 503 22,700 -1,520 Descending FlightAware ADS-B
Tue 02:53:09 AM 53.9130 -7.9740 108° East 428 493 21,900 -1,694 Descending FlightAware ADS-B
Tue 02:53:59 AM 53.8760 -7.7840 108° East 413 475 20,300 -1,067 Descending FlightAware ADS-B
Tue 02:54:39 AM 53.8580 -7.6890 108° East 413 475 20,300 -1,500 Level FlightAware ADS-B
Tue 02:55:19 AM 53.8310 -7.5520 108° East 397 457 18,300 -2,325 Descending FlightAware ADS-B
Tue 02:55:59 AM 53.8080 -7.4350 108° East 386 444 17,200 -1,624 Descending FlightAware ADS-B
Tue 02:56:44 AM 53.7810 -7.2970 104° East 377 434 16,000 -1,482 Descending FlightAware ADS-B
Tue 02:57:24 AM 53.7650 -7.1850 104° East 371 427 15,100 -706 Descending FlightAware ADS-B
Tue 02:58:09 AM 53.7470 -7.0620 104° East 390 449 15,000 -67 Descending FlightAware ADS-B
Tue 02:58:54 AM 53.7280 -6.9300 104° East 390 449 15,000 -847 Level FlightAware ADS-B
Tue 02:59:34 AM 53.7100 -6.8050 101° East 387 445 13,800 -1,575 Descending FlightAware ADS-B
Tue 03:00:14 AM 53.6980 -6.6970 95° East 382 440 12,900 -1,200 Descending FlightAware ADS-B
Tue 03:00:59 AM 53.6910 -6.5630 96° East 346 398 12,100 -1,624 Descending FlightAware ADS-B
Tue 03:01:39 AM 53.6850 -6.4620 95° East 314 361 10,600 -2,314 Descending FlightAware ADS-B
Tue 03:02:09 AM 53.6810 -6.3880 95° East 321 369 9,400 -1,700 Descending FlightAware ADS-B
Tue 03:02:39 AM 53.6770 -6.3150 96° East 313 360 8,900 -600 Descending FlightAware ADS-B
Tue 03:03:19 AM 53.6720 -6.2350 94° East 313 360 8,700 -1,091 Descending FlightAware ADS-B
Tue 03:03:34 AM 53.6700 -6.1830 95° East 313 360 7,900 -1,200 Descending FlightAware ADS-B
Tue 03:03:59 AM 53.6670 -6.1290 95° East 313 360 7,900 -795 Level FlightAware ADS-B
Tue 03:06:20 AM 53.6500 -5.8180 138° Southeast 252 290 5,700 -885 Descending FlightAware ADS-B
Tue 03:06:35 AM 53.6370 -5.7980 207° Southwest 248 285 5,600 -296 Descending FlightAware ADS-B
Tue 03:14:47 AM 53.4060 -5.9970 275° West 156 180 3,200 -293 Descending FlightAware ADS-B
Tue 03:22:00 AM 53.4914 -7.7025 94° East  Level Estimated
Tue 03:23:00 AM 53.4167 -6.2667 336° Northwest  Level FlightAware Approximate
Tue 03:24:00 AM 53.5461 -6.3615 156° South  Level Estimated
Tue 03:25:00 AM 53.4167 -6.2667 336° Northwest  Level FlightAware Approximate
Tue 03:26:00 AM 53.5461 -6.3615 156° South  Level Estimated
Tue 03:27:00 AM 53.4167 -6.2667 336° Northwest  Level FlightAware Approximate
Tue 03:28:00 AM 53.5461 -6.3615 336° Northwest  Level Estimated

Login

Don't have an account? Register now (free) for customized features, flight alerts, and more!